Time;durP1;ratioP1;P1;durP2;ratioP2;P2;SDS_P1;SDS_P2;PMS_P1;PMS_P2;Temp;Humidity;BMP_temperature;BMP_pressure;BME280_temperature;BME280_humidity;BME280_pressure;Samples;Min_cycle;Max_cycle;Signal;HPM_P1;HPM_P2
2022/06/01 00:00:48;;;;;;;13.23;4.95;;;20.50;99.90;;;;;;5022077;28;20034;-71
2022/06/01 00:03:15;;;;;;;12.48;4.45;;;20.50;99.90;;;;;;5018150;28;20037;-71
2022/06/01 00:05:41;;;;;;;10.75;4.45;;;20.50;99.90;;;;;;5018236;28;20072;-71
2022/06/01 00:08:07;;;;;;;10.02;3.78;;;20.40;99.90;;;;;;5020934;28;20560;-71
2022/06/01 00:10:33;;;;;;;9.82;3.90;;;20.40;99.90;;;;;;5020991;28;20446;-70
2022/06/01 00:13:00;;;;;;;11.98;4.10;;;20.20;99.90;;;;;;5018836;28;20045;-70
2022/06/01 00:15:28;;;;;;;5.72;3.70;;;20.30;99.90;;;;;;5032103;28;20045;-71
2022/06/01 00:17:57;;;;;;;9.90;4.32;;;20.30;99.90;;;;;;5016754;28;20583;-71
2022/06/01 00:20:23;;;;;;;11.00;4.53;;;20.30;99.90;;;;;;5019186;28;20579;-71
2022/06/01 00:22:49;;;;;;;12.25;4.20;;;20.10;99.90;;;;;;5018656;28;20034;-71
2022/06/01 00:25:16;;;;;;;9.48;3.63;;;20.20;99.90;;;;;;5018551;28;20128;-71
2022/06/01 00:27:42;;;;;;;7.75;4.03;;;20.00;99.90;;;;;;5018689;28;20049;-71
2022/06/01 00:30:12;;;;;;;12.65;3.97;;;20.00;99.90;;;;;;5019950;28;20052;-71
2022/06/01 00:32:38;;;;;;;10.15;4.35;;;19.90;99.90;;;;;;5019386;28;20087;-71
2022/06/01 00:35:07;;;;;;;10.88;4.68;;;19.90;99.90;;;;;;5021203;28;20085;-71
2022/06/01 00:37:33;;;;;;;11.07;4.60;;;20.00;99.90;;;;;;5022883;28;20107;-71
2022/06/01 00:40:00;;;;;;;8.65;4.45;;;19.90;99.90;;;;;;5018981;28;20041;-71
2022/06/01 00:42:29;;;;;;;10.77;4.40;;;19.90;99.90;;;;;;5019205;28;20034;-71
2022/06/01 00:44:55;;;;;;;11.95;4.30;;;20.00;99.90;;;;;;5018902;28;20042;-71
2022/06/01 00:47:23;;;;;;;14.77;3.78;;;19.90;99.90;;;;;;5018885;28;20489;-71
2022/06/01 00:49:59;;;;;;;9.38;3.97;;;19.90;99.90;;;;;;5017937;28;20055;-71
2022/06/01 00:52:35;;;;;;;11.35;4.28;;;19.90;99.90;;;;;;5036463;28;20034;-71
2022/06/01 00:55:13;;;;;;;11.15;3.75;;;19.80;99.90;;;;;;5018511;28;20350;-71
2022/06/01 00:57:39;;;;;;;8.25;3.83;;;19.80;99.90;;;;;;5021519;28;20410;-70
2022/06/01 01:00:16;;;;;;;8.20;3.67;;;19.80;99.90;;;;;;5016853;28;20497;-71
2022/06/01 01:02:41;;;;;;;11.07;4.10;;;19.80;99.90;;;;;;5033562;28;20614;-71
2022/06/01 01:05:12;;;;;;;8.25;3.55;;;19.80;99.90;;;;;;5003753;28;20042;-71
2022/06/01 01:07:41;;;;;;;9.68;3.92;;;19.90;99.90;;;;;;5020593;28;20060;-70
2022/06/01 01:10:09;;;;;;;9.55;4.22;;;19.90;99.90;;;;;;5021648;28;20040;-70
2022/06/01 01:12:57;;;;;;;9.80;4.43;;;20.00;99.90;;;;;;5024556;28;20560;-71
2022/06/01 01:15:26;;;;;;;8.32;3.70;;;20.00;99.90;;;;;;5033822;28;20045;-70
2022/06/01 01:17:54;;;;;;;8.20;3.08;;;20.00;99.90;;;;;;5020473;28;20464;-71
2022/06/01 01:20:20;;;;;;;10.98;3.95;;;20.00;99.90;;;;;;5022136;28;20049;-70
2022/06/01 01:23:01;;;;;;;8.38;3.30;;;20.00;99.90;;;;;;5023548;28;20049;-70
2022/06/01 01:25:38;;;;;;;7.53;3.60;;;19.90;99.90;;;;;;5020214;28;20528;-71
2022/06/01 01:28:07;;;;;;;10.68;4.45;;;19.90;99.90;;;;;;5015185;28;20478;-71
2022/06/01 01:30:36;;;;;;;8.88;3.88;;;19.90;99.90;;;;;;5015983;28;20188;-71
2022/06/01 01:33:12;;;;;;;8.43;3.53;;;19.90;99.90;;;;;;5018828;28;20042;-70
2022/06/01 01:35:39;;;;;;;8.73;3.40;;;19.90;99.90;;;;;;5019851;28;20033;-70
2022/06/01 01:38:09;;;;;;;7.53;3.28;;;19.90;99.90;;;;;;5021342;28;20059;-71
2022/06/01 01:40:36;;;;;;;6.55;2.95;;;19.90;99.90;;;;;;5054730;28;20477;-72
2022/06/01 01:43:07;;;;;;;7.53;2.85;;;19.90;99.90;;;;;;5015256;28;20104;-71
2022/06/01 01:45:36;;;;;;;6.65;2.63;;;20.00;99.90;;;;;;5025365;28;20037;-71
2022/06/01 01:48:03;;;;;;;10.05;2.90;;;19.90;99.90;;;;;;5036574;28;20169;-70
2022/06/01 01:50:30;;;;;;;5.93;2.80;;;19.80;99.90;;;;;;5028392;28;20038;-69
2022/06/01 01:52:56;;;;;;;8.25;2.70;;;19.80;99.90;;;;;;5025754;28;20042;-71
2022/06/01 01:55:50;;;;;;;8.63;3.60;;;19.70;99.90;;;;;;5024674;28;20041;-70
2022/06/01 01:58:32;;;;;;;8.75;3.90;;;19.70;99.90;;;;;;5039154;28;20500;-71
2022/06/01 02:01:06;;;;;;;9.80;3.80;;;19.60;99.90;;;;;;5023589;28;20045;-71
2022/06/01 02:03:38;;;;;;;10.38;4.82;;;19.60;99.90;;;;;;5057530;28;20044;-70
2022/06/01 02:06:09;;;;;;;12.50;4.95;;;19.50;99.90;;;;;;5019817;28;20048;-71
2022/06/01 02:08:47;;;;;;;9.45;4.63;;;19.40;99.90;;;;;;5025760;28;20037;-71
2022/06/01 02:14:35;;;;;;;7.82;3.78;;;19.40;99.90;;;;;;5020756;28;20052;-71
2022/06/01 02:17:07;;;;;;;8.30;4.40;;;19.50;99.90;;;;;;5019723;28;20069;-71
2022/06/01 02:19:39;;;;;;;7.97;4.10;;;19.50;99.90;;;;;;5021897;28;20062;-71
2022/06/01 02:22:06;;;;;;;13.57;4.43;;;19.50;99.90;;;;;;5022522;28;20026;-71
2022/06/01 02:24:33;;;;;;;10.55;4.22;;;19.60;99.90;;;;;;5022853;28;20647;-70
2022/06/01 02:27:00;;;;;;;9.20;4.30;;;19.60;99.90;;;;;;5026172;28;20046;-70
2022/06/01 02:29:32;;;;;;;10.38;4.22;;;19.70;99.90;;;;;;5033917;28;20416;-70
2022/06/01 02:32:00;;;;;;;12.63;4.43;;;19.70;99.90;;;;;;5018393;28;20482;-70
2022/06/01 02:34:28;;;;;;;11.98;4.50;;;19.70;99.90;;;;;;5020977;28;20064;-70
2022/06/01 02:36:56;;;;;;;8.43;4.70;;;19.70;99.90;;;;;;5021633;28;20038;-71
2022/06/01 02:39:23;;;;;;;8.73;4.40;;;19.60;99.90;;;;;;5039492;28;20092;-71
2022/06/01 02:44:33;;;;;;;12.63;4.45;;;19.50;99.90;;;;;;5021401;28;20048;-71
2022/06/01 02:47:01;;;;;;;9.82;4.63;;;19.50;99.90;;;;;;5022870;28;20033;-71
2022/06/01 02:49:28;;;;;;;10.10;3.97;;;19.40;99.90;;;;;;5021117;28;20080;-71
2022/06/01 02:51:54;;;;;;;11.20;4.13;;;19.30;99.90;;;;;;5020914;28;20041;-71
2022/06/01 02:54:21;;;;;;;8.82;4.05;;;19.30;99.90;;;;;;5035651;28;20052;-71
2022/06/01 02:56:47;;;;;;;9.07;4.65;;;19.30;99.90;;;;;;5023303;28;20567;-71
2022/06/01 02:59:15;;;;;;;9.75;4.20;;;19.20;99.90;;;;;;5021032;28;20492;-71
2022/06/01 03:01:43;;;;;;;9.27;6.03;;;19.10;99.90;;;;;;5019812;28;20033;-70
2022/06/01 03:04:08;;;;;;;10.70;6.70;;;19.00;99.90;;;;;;5024721;28;20549;-70
2022/06/01 03:06:34;;;;;;;11.23;6.10;;;18.90;99.90;;;;;;5022315;28;20065;-70
2022/06/01 03:09:00;;;;;;;15.73;6.90;;;19.00;99.90;;;;;;5020757;28;20034;-71
2022/06/01 03:11:26;;;;;;;12.98;9.27;;;19.00;99.90;;;;;;5024513;28;20041;-71
2022/06/01 03:13:52;;;;;;;18.42;10.55;;;18.90;99.90;;;;;;5024422;28;20397;-71
2022/06/01 03:16:19;;;;;;;14.98;10.07;;;18.80;99.90;;;;;;5032387;28;20041;-70
2022/06/01 03:18:44;;;;;;;12.73;9.82;;;18.80;99.90;;;;;;5022437;28;21184;-71
2022/06/01 03:21:10;;;;;;;19.10;11.23;;;18.90;99.90;;;;;;5021829;28;20128;-70
2022/06/01 03:23:38;;;;;;;16.80;10.60;;;18.90;99.90;;;;;;5049504;28;20037;-71
2022/06/01 03:26:04;;;;;;;17.75;11.27;;;18.90;99.90;;;;;;5022808;28;20042;-70
2022/06/01 03:28:30;;;;;;;18.60;12.15;;;18.90;99.90;;;;;;5021357;28;20037;-70
2022/06/01 03:30:58;;;;;;;24.33;14.02;;;18.80;99.90;;;;;;5021877;28;20121;-71
2022/06/01 03:33:24;;;;;;;25.83;14.45;;;18.80;99.90;;;;;;5021014;28;20053;-71
2022/06/01 03:35:50;;;;;;;18.90;13.60;;;18.80;99.90;;;;;;5022676;28;20069;-70
2022/06/01 03:38:16;;;;;;;20.17;14.02;;;18.70;99.90;;;;;;5018163;28;20633;-69
2022/06/01 03:40:42;;;;;;;22.95;13.98;;;18.80;99.90;;;;;;5051477;28;20505;-70
2022/06/01 03:43:11;;;;;;;26.00;14.85;;;18.80;99.90;;;;;;5022272;28;20068;-70
2022/06/01 03:45:55;;;;;;;21.00;14.88;;;18.80;99.90;;;;;;5021651;28;20065;-71
2022/06/01 03:48:23;;;;;;;22.45;15.75;;;18.80;99.90;;;;;;5020868;28;20038;-70
2022/06/01 03:50:49;;;;;;;17.90;15.10;;;18.80;99.90;;;;;;5038559;28;20041;-70
2022/06/01 03:53:16;;;;;;;23.30;16.65;;;18.90;99.90;;;;;;5020212;28;20101;-71
2022/06/01 03:55:43;;;;;;;24.27;14.88;;;18.90;99.90;;;;;;5019722;28;20046;-70
2022/06/01 03:58:16;;;;;;;18.58;14.10;;;18.90;99.90;;;;;;5036396;28;20042;-71
2022/06/01 04:00:43;;;;;;;17.35;13.82;;;18.90;99.90;;;;;;5022991;28;20054;-72
2022/06/01 04:03:10;;;;;;;17.98;11.90;;;18.90;99.90;;;;;;5024399;28;20037;-70
2022/06/01 04:05:36;;;;;;;19.63;13.07;;;19.00;99.90;;;;;;5024265;28;20041;-70
2022/06/01 04:08:02;;;;;;;18.05;13.52;;;19.00;99.90;;;;;;5015949;28;20048;-71
2022/06/01 04:10:28;;;;;;;20.10;14.32;;;19.00;99.90;;;;;;5023375;28;20067;-71
2022/06/01 04:12:54;;;;;;;23.95;14.07;;;18.90;99.90;;;;;;5020369;28;20042;-70
2022/06/01 04:15:20;;;;;;;19.73;13.23;;;19.00;99.90;;;;;;5025173;28;20102;-71
2022/06/01 04:17:45;;;;;;;15.75;10.77;;;19.00;99.90;;;;;;5032168;28;20398;-70
2022/06/01 04:20:12;;;;;;;13.60;8.43;;;19.00;99.90;;;;;;5018097;28;20038;-71
2022/06/01 04:22:41;;;;;;;15.00;7.55;;;19.00;99.90;;;;;;5027123;28;20101;-72
2022/06/01 04:25:09;;;;;;;11.18;6.30;;;19.00;99.90;;;;;;5017273;28;20038;-72
2022/06/01 04:27:38;;;;;;;11.40;6.07;;;19.00;99.90;;;;;;5020874;28;20420;-70
2022/06/01 04:30:08;;;;;;;9.88;5.85;;;19.00;99.90;;;;;;5018916;28;20042;-70
2022/06/01 04:32:35;;;;;;;11.98;6.00;;;18.90;99.90;;;;;;5018429;28;20034;-71
2022/06/01 04:35:02;;;;;;;10.75;5.68;;;19.00;99.90;;;;;;5021032;28;20037;-71
2022/06/01 04:37:28;;;;;;;15.48;7.97;;;19.00;99.90;;;;;;5021161;28;20034;-71
2022/06/01 04:39:55;;;;;;;19.35;10.00;;;19.00;99.90;;;;;;5035213;28;20091;-70
2022/06/01 04:42:21;;;;;;;13.55;8.82;;;19.00;99.90;;;;;;5017858;28;20034;-71
2022/06/01 04:44:47;;;;;;;13.40;8.88;;;19.10;99.90;;;;;;5021449;28;20053;-71
2022/06/01 04:47:13;;;;;;;12.57;6.78;;;19.00;99.90;;;;;;5031474;28;20045;-70
2022/06/01 04:49:39;;;;;;;15.05;8.95;;;19.00;99.90;;;;;;5016639;28;20113;-71
2022/06/01 04:52:07;;;;;;;14.73;8.60;;;19.10;99.90;;;;;;5019323;28;20053;-71
2022/06/01 04:54:34;;;;;;;13.90;8.07;;;19.10;99.90;;;;;;5023157;28;20038;-72
2022/06/01 04:56:59;;;;;;;18.13;9.63;;;19.20;99.90;;;;;;5019712;28;20030;-70
2022/06/01 04:59:26;;;;;;;15.82;8.63;;;19.20;99.90;;;;;;5052110;28;20072;-71
2022/06/01 05:01:51;;;;;;;18.50;9.13;;;19.20;99.90;;;;;;5019318;28;20567;-70
2022/06/01 05:04:17;;;;;;;15.40;10.10;;;19.20;99.90;;;;;;5022035;28;20045;-72
2022/06/01 05:06:44;;;;;;;16.73;10.05;;;19.30;99.90;;;;;;5017661;28;20048;-72
2022/06/01 05:09:10;;;;;;;14.48;10.43;;;19.40;99.90;;;;;;5019337;28;20037;-71
2022/06/01 05:11:35;;;;;;;18.80;13.95;;;19.40;99.90;;;;;;5017476;28;20460;-71
2022/06/01 05:14:02;;;;;;;21.75;12.57;;;19.50;99.90;;;;;;5036043;28;20033;-72
2022/06/01 05:16:27;;;;;;;18.42;12.55;;;19.50;99.90;;;;;;5019762;28;20521;-71
2022/06/01 05:18:54;;;;;;;18.98;13.50;;;19.60;99.90;;;;;;5017440;28;20041;-71
2022/06/01 05:21:20;;;;;;;22.13;14.93;;;19.60;99.90;;;;;;5023294;28;20033;-71
2022/06/01 05:23:45;;;;;;;17.33;13.38;;;19.70;99.90;;;;;;5023605;28;20052;-72
2022/06/01 05:26:12;;;;;;;23.30;13.48;;;19.70;99.90;;;;;;5024286;28;20034;-73
2022/06/01 05:28:38;;;;;;;23.25;13.20;;;19.80;99.90;;;;;;5023819;28;20045;-71
2022/06/01 05:31:07;;;;;;;18.25;12.70;;;19.80;99.90;;;;;;5022437;28;20048;-72
2022/06/01 05:33:33;;;;;;;16.35;12.07;;;19.90;99.90;;;;;;5041242;28;20107;-72
2022/06/01 05:35:59;;;;;;;16.65;11.50;;;19.90;99.90;;;;;;5022810;28;20061;-70
2022/06/01 05:38:25;;;;;;;15.38;10.98;;;20.00;99.90;;;;;;5024752;28;20034;-71
2022/06/01 05:40:51;;;;;;;17.00;10.50;;;20.10;99.90;;;;;;5018136;28;20116;-71
2022/06/01 05:43:20;;;;;;;17.52;10.98;;;20.20;99.90;;;;;;5022096;28;20388;-70
2022/06/01 05:45:47;;;;;;;16.52;8.70;;;20.20;99.90;;;;;;5036085;28;20046;-70
2022/06/01 05:48:15;;;;;;;12.90;8.38;;;20.30;99.90;;;;;;5036295;28;20038;-70
2022/06/01 05:50:42;;;;;;;14.40;9.70;;;20.40;99.90;;;;;;5020583;28;20046;-70
2022/06/01 05:53:08;;;;;;;18.08;10.40;;;20.40;99.90;;;;;;5023845;28;20033;-71
2022/06/01 05:55:35;;;;;;;20.80;10.07;;;20.50;99.90;;;;;;5055950;28;20120;-70
2022/06/01 05:58:20;;;;;;;13.32;8.73;;;20.60;99.90;;;;;;5021800;28;20069;-71
2022/06/01 06:00:48;;;;;;;12.52;7.82;;;20.60;99.90;;;;;;5020682;28;20120;-72
2022/06/01 06:03:16;;;;;;;15.27;7.78;;;20.70;99.90;;;;;;5018139;28;20418;-72
2022/06/01 06:08:27;;;;;;;12.18;6.20;;;20.90;99.90;;;;;;5023268;28;20087;-70
2022/06/01 06:10:53;;;;;;;10.18;6.18;;;21.00;99.90;;;;;;5040769;28;20049;-71
2022/06/01 06:13:19;;;;;;;10.38;6.40;;;21.10;99.90;;;;;;5035637;28;20041;-72
2022/06/01 06:15:45;;;;;;;12.07;6.22;;;21.20;99.90;;;;;;5030419;28;20041;-71
2022/06/01 06:18:12;;;;;;;12.70;5.70;;;21.30;99.90;;;;;;5022465;28;20092;-71
2022/06/01 06:20:42;;;;;;;9.38;5.07;;;21.30;99.90;;;;;;5033669;28;20484;-71
2022/06/01 06:23:08;;;;;;;8.82;4.68;;;21.40;99.90;;;;;;5021186;28;20455;-71
2022/06/01 06:25:34;;;;;;;11.93;4.93;;;21.50;99.90;;;;;;5017976;28;20037;-72
2022/06/01 06:28:00;;;;;;;11.55;4.78;;;21.60;99.90;;;;;;5021452;28;20833;-71
2022/06/01 06:30:26;;;;;;;13.90;4.97;;;21.70;99.90;;;;;;5023791;28;20046;-70
2022/06/01 06:32:52;;;;;;;12.18;5.00;;;21.80;99.90;;;;;;5023061;28;20462;-70
2022/06/01 06:35:18;;;;;;;12.48;6.07;;;21.80;99.90;;;;;;5026298;28;20129;-71
2022/06/01 06:37:44;;;;;;;12.35;6.65;;;21.90;99.90;;;;;;5022239;28;20045;-71
2022/06/01 06:40:11;;;;;;;14.88;6.28;;;21.90;99.90;;;;;;5038192;28;20041;-71
2022/06/01 06:42:38;;;;;;;21.88;10.43;;;22.00;99.90;;;;;;5007958;28;20026;-70
2022/06/01 06:45:05;;;;;;;15.45;10.18;;;22.00;99.90;;;;;;5024437;28;20041;-70
2022/06/01 06:47:32;;;;;;;18.40;10.05;;;22.00;99.90;;;;;;5022232;28;20084;-71
2022/06/01 06:50:00;;;;;;;16.73;9.82;;;22.00;99.90;;;;;;5021934;28;20052;-71
2022/06/01 06:52:26;;;;;;;22.95;11.18;;;22.10;99.90;;;;;;5029871;28;20048;-71
2022/06/01 06:54:53;;;;;;;18.70;10.50;;;22.20;99.90;;;;;;5022371;28;20038;-70
2022/06/01 06:57:19;;;;;;;20.80;11.55;;;22.20;99.90;;;;;;5027425;28;20124;-71
2022/06/01 06:59:48;;;;;;;19.00;12.30;;;22.20;99.90;;;;;;5021641;28;20105;-71
2022/06/01 07:02:18;;;;;;;21.00;12.18;;;22.30;99.90;;;;;;5014058;28;20045;-73
2022/06/01 07:04:46;;;;;;;17.88;13.25;;;22.40;99.90;;;;;;5049743;28;20115;-72
2022/06/01 07:07:15;;;;;;;20.67;13.98;;;22.40;99.90;;;;;;5020004;28;20037;-73
2022/06/01 07:09:41;;;;;;;23.95;14.13;;;22.50;99.90;;;;;;5025847;28;20354;-74
2022/06/01 07:12:10;;;;;;;18.90;14.02;;;22.50;99.90;;;;;;5020114;28;20042;-72
2022/06/01 07:14:36;;;;;;;21.10;15.05;;;22.50;99.90;;;;;;5022812;28;20037;-74
2022/06/01 07:17:03;;;;;;;19.60;15.05;;;22.60;99.90;;;;;;5033876;28;20473;-74
2022/06/01 07:19:29;;;;;;;20.20;13.30;;;22.70;99.90;;;;;;5017583;28;20038;-74
2022/06/01 07:21:56;;;;;;;17.42;11.80;;;22.80;99.90;;;;;;5014316;28;20041;-74
2022/06/01 07:24:22;;;;;;;18.27;11.63;;;22.90;99.90;;;;;;5013422;28;20083;-74
2022/06/01 07:26:49;;;;;;;18.88;11.02;;;22.90;99.90;;;;;;5014428;28;20457;-75
2022/06/01 07:29:18;;;;;;;18.65;10.32;;;23.00;99.90;;;;;;5016841;28;20053;-74
2022/06/01 07:31:45;;;;;;;17.85;10.15;;;23.20;99.90;;;;;;5037700;28;20042;-74
2022/06/01 07:34:11;;;;;;;17.70;9.60;;;23.20;99.90;;;;;;5033671;28;20188;-75
2022/06/01 07:36:38;;;;;;;20.67;11.02;;;23.30;99.90;;;;;;5039453;28;20124;-74
2022/06/01 07:44:40;;;;;;;24.15;15.43;;;23.40;99.90;;;;;;5018932;28;20072;-74
2022/06/01 07:47:07;;;;;;;25.05;15.63;;;23.40;99.90;;;;;;5020617;28;20050;-74
2022/06/01 07:49:33;;;;;;;21.75;14.52;;;23.50;99.90;;;;;;5009074;28;20072;-74
2022/06/01 07:52:00;;;;;;;22.90;14.25;;;23.60;99.90;;;;;;5044572;28;20115;-73
2022/06/01 07:54:26;;;;;;;28.88;14.40;;;23.50;99.90;;;;;;5015359;28;20045;-73
2022/06/01 07:56:52;;;;;;;23.10;13.05;;;23.60;99.90;;;;;;5026555;28;20049;-73
2022/06/01 07:59:18;;;;;;;19.52;11.45;;;23.70;99.90;;;;;;5022494;28;20071;-73
2022/06/01 08:01:45;;;;;;;19.63;8.77;;;23.60;99.90;;;;;;5013564;28;20061;-75
2022/06/01 08:04:11;;;;;;;12.20;7.55;;;23.70;99.90;;;;;;5021283;28;20359;-74
2022/06/01 08:06:38;;;;;;;12.00;5.82;;;23.80;99.90;;;;;;5012593;28;20030;-73
2022/06/01 08:09:06;;;;;;;11.90;5.53;;;23.70;99.90;;;;;;5008313;28;20041;-74
2022/06/01 08:14:17;;;;;;;11.73;3.83;;;23.90;99.90;;;;;;5013836;28;20481;-73
2022/06/01 08:16:46;;;;;;;14.70;3.60;;;24.00;99.90;;;;;;5019091;28;20071;-73
2022/06/01 08:19:13;;;;;;;12.75;4.15;;;23.90;99.90;;;;;;5027515;28;20036;-74
2022/06/01 08:21:39;;;;;;;13.70;3.40;;;24.00;99.90;;;;;;5023076;28;20043;-73
2022/06/01 08:24:07;;;;;;;11.88;2.92;;;24.20;99.90;;;;;;5036369;28;20127;-74
2022/06/01 08:26:33;;;;;;;10.63;3.25;;;24.30;99.70;;;;;;5022780;28;20045;-73
2022/06/01 08:28:59;;;;;;;11.80;3.45;;;24.30;99.90;;;;;;5020203;28;20123;-73
2022/06/01 08:31:27;;;;;;;12.75;3.20;;;24.40;99.90;;;;;;5032980;28;20057;-73
2022/06/01 08:33:54;;;;;;;8.90;2.75;;;24.40;99.90;;;;;;5037336;28;20141;-74
2022/06/01 08:36:20;;;;;;;8.18;3.25;;;24.60;99.20;;;;;;5021812;28;20462;-73
2022/06/01 08:38:47;;;;;;;15.93;5.10;;;24.60;99.70;;;;;;5017971;28;20034;-74
2022/06/01 08:41:15;;;;;;;17.45;4.78;;;24.60;99.90;;;;;;5018372;28;20069;-75
2022/06/01 08:43:54;;;;;;;9.30;4.57;;;24.50;99.90;;;;;;5021774;28;20038;-73
2022/06/01 08:46:21;;;;;;;13.88;5.80;;;24.60;99.90;;;;;;5050995;28;20025;-73
2022/06/01 08:48:53;;;;;;;16.25;5.15;;;24.70;99.90;;;;;;5036045;28;20104;-74
2022/06/01 08:51:23;;;;;;;16.27;6.28;;;24.80;99.90;;;;;;5018510;28;20048;-74
2022/06/01 08:53:50;;;;;;;14.55;5.15;;;24.80;99.90;;;;;;5033470;28;20046;-73
2022/06/01 08:56:40;;;;;;;12.27;4.55;;;25.00;99.90;;;;;;5017502;28;20046;-75
2022/06/01 08:59:21;;;;;;;15.45;4.07;;;25.00;99.90;;;;;;5019971;28;20045;-74
2022/06/01 09:02:02;;;;;;;12.77;4.07;;;25.20;99.80;;;;;;5020029;28;20033;-73
2022/06/01 09:05:01;;;;;;;13.32;7.00;;;25.30;99.50;;;;;;5033069;28;20155;-73
2022/06/01 09:07:38;;;;;;;13.93;7.10;;;25.20;99.90;;;;;;5018449;28;20092;-73
2022/06/01 09:10:20;;;;;;;14.80;6.72;;;25.30;99.90;;;;;;5036206;28;20045;-72
2022/06/01 09:12:50;;;;;;;14.05;6.03;;;25.30;99.90;;;;;;5020746;28;20137;-73
2022/06/01 09:15:23;;;;;;;9.50;4.57;;;25.10;99.90;;;;;;5035382;28;20053;-73
2022/06/01 09:17:50;;;;;;;12.80;4.50;;;25.10;99.90;;;;;;5019611;28;20034;-73
2022/06/01 09:23:08;;;;;;;12.98;4.63;;;25.00;99.90;;;;;;4994046;28;20548;-73
2022/06/01 09:25:38;;;;;;;9.55;4.25;;;25.30;99.90;;;;;;5020040;28;20094;-75
2022/06/01 09:28:18;;;;;;;12.93;3.95;;;25.50;99.90;;;;;;5017080;28;20045;-74
2022/06/01 09:30:51;;;;;;;13.10;4.30;;;25.60;99.90;;;;;;5020262;28;20057;-73
2022/06/01 09:33:32;;;;;;;13.70;3.75;;;25.60;99.90;;;;;;5017440;28;20042;-73
2022/06/01 09:36:24;;;;;;;11.57;4.10;;;25.60;99.90;;;;;;5019701;28;20072;-74
2022/06/01 09:38:51;;;;;;;12.48;4.20;;;25.50;99.90;;;;;;5052076;28;20046;-74
2022/06/01 09:41:23;;;;;;;11.25;4.25;;;25.60;99.90;;;;;;5033810;28;20124;-74
2022/06/01 09:43:59;;;;;;;14.18;5.10;;;25.80;99.90;;;;;;5032315;28;20152;-74
2022/06/01 09:46:40;;;;;;;9.88;3.83;;;25.80;99.90;;;;;;5020517;28;20056;-74
2022/06/01 09:49:30;;;;;;;9.60;3.92;;;25.80;99.90;;;;;;5036007;28;20127;-73
2022/06/01 09:51:58;;;;;;;8.70;3.45;;;26.10;99.70;;;;;;5018734;28;20099;-74
2022/06/01 09:54:29;;;;;;;13.02;4.10;;;26.30;99.60;;;;;;5015568;28;20044;-74
2022/06/01 09:56:56;;;;;;;15.15;4.00;;;26.50;99.60;;;;;;5030584;28;20468;-74
2022/06/01 10:08:31;;;;;;;7.65;3.58;;;26.70;98.60;;;;;;5016615;28;20064;-73
2022/06/01 10:11:05;;;;;;;14.60;3.42;;;26.80;98.20;;;;;;5042100;28;20041;-74
2022/06/01 10:13:34;;;;;;;9.93;3.25;;;27.00;97.70;;;;;;5040246;28;20394;-73
2022/06/01 10:16:35;;;;;;;10.57;3.38;;;27.10;97.20;;;;;;5021000;28;20042;-73
2022/06/01 10:19:03;;;;;;;9.40;2.70;;;27.40;96.60;;;;;;5023266;28;20041;-73
2022/06/01 10:21:43;;;;;;;6.47;2.72;;;27.20;96.30;;;;;;5027447;28;20056;-74
2022/06/01 10:24:17;;;;;;;10.18;3.17;;;27.30;95.50;;;;;;5023058;28;20069;-74
2022/06/01 10:26:52;;;;;;;11.68;3.17;;;27.30;96.10;;;;;;5037690;28;20061;-74
2022/06/01 10:29:24;;;;;;;11.32;3.38;;;27.20;96.30;;;;;;5035719;28;20041;-73
2022/06/01 10:31:59;;;;;;;12.18;3.67;;;27.10;97.00;;;;;;5024108;28;20041;-73
2022/06/01 10:35:02;;;;;;;13.30;4.13;;;27.10;97.20;;;;;;5021365;28;20445;-74
2022/06/01 10:37:33;;;;;;;12.35;3.88;;;27.20;98.20;;;;;;5019708;28;20065;-74
2022/06/01 10:40:11;;;;;;;11.63;3.55;;;27.10;98.10;;;;;;5034571;28;20046;-74
2022/06/01 10:45:53;;;;;;;8.65;3.78;;;27.50;97.90;;;;;;5024308;28;20053;-74
2022/06/01 10:48:28;;;;;;;16.83;4.15;;;27.50;98.10;;;;;;5020310;28;20489;-74
2022/06/01 10:51:27;;;;;;;14.65;4.65;;;27.20;98.70;;;;;;5024665;28;20046;-75
2022/06/01 10:54:10;;;;;;;16.30;4.47;;;27.50;98.40;;;;;;5050129;28;20046;-73
2022/06/01 10:56:36;;;;;;;11.77;3.75;;;27.10;98.50;;;;;;5053432;28;20038;-74
2022/06/01 10:59:10;;;;;;;11.82;4.35;;;27.00;98.50;;;;;;5022378;28;20046;-74
2022/06/01 11:01:40;;;;;;;11.13;4.43;;;26.80;98.40;;;;;;5051903;28;20048;-74
2022/06/01 11:04:13;;;;;;;11.02;4.53;;;26.10;99.10;;;;;;5020830;28;20528;-74
2022/06/01 11:07:10;;;;;;;15.77;4.90;;;26.40;99.90;;;;;;5035390;28;20059;-73
2022/06/01 11:09:50;;;;;;;10.60;4.80;;;26.90;99.90;;;;;;5022391;28;20091;-74
2022/06/01 11:12:44;;;;;;;10.43;3.97;;;27.30;99.70;;;;;;5036396;28;20129;-74
2022/06/01 11:15:24;;;;;;;10.35;3.83;;;27.80;98.90;;;;;;5017521;28;20801;-74
2022/06/01 11:18:07;;;;;;;7.72;4.20;;;28.30;98.00;;;;;;5035305;28;20380;-75
2022/06/01 11:20:55;;;;;;;11.60;3.67;;;28.00;98.10;;;;;;5018522;28;20148;-73
2022/06/01 11:23:31;;;;;;;9.00;3.95;;;28.10;97.20;;;;;;5035191;28;20045;-74
2022/06/01 11:26:32;;;;;;;15.25;4.00;;;28.70;97.90;;;;;;5022090;28;20500;-74
2022/06/01 11:29:29;;;;;;;12.70;4.10;;;28.70;97.30;;;;;;5017427;28;20076;-74
2022/06/01 11:32:01;;;;;;;9.70;3.70;;;28.70;97.70;;;;;;5022429;28;20098;-74
2022/06/01 11:34:40;;;;;;;9.63;3.67;;;28.60;97.40;;;;;;5036526;28;20025;-74
2022/06/01 11:37:24;;;;;;;8.90;3.63;;;28.50;97.50;;;;;;5033050;28;20038;-74
2022/06/01 11:39:56;;;;;;;8.45;3.97;;;28.60;97.50;;;;;;5018066;28;20571;-74
2022/06/01 11:42:40;;;;;;;11.48;4.40;;;28.90;97.60;;;;;;5033007;28;20969;-76
2022/06/01 11:45:19;;;;;;;11.50;3.83;;;28.50;97.70;;;;;;5050215;28;20044;-74
2022/06/01 11:47:51;;;;;;;10.57;4.25;;;28.50;98.20;;;;;;5019517;28;20129;-75
2022/06/01 11:50:32;;;;;;;13.98;4.00;;;28.80;97.80;;;;;;5034407;28;20038;-75
2022/06/01 11:53:07;;;;;;;12.55;4.57;;;27.10;99.10;;;;;;5040643;28;20361;-74
2022/06/01 11:55:36;;;;;;;10.70;3.35;;;27.40;99.10;;;;;;5035270;28;20461;-74
2022/06/01 11:58:31;;;;;;;13.35;4.53;;;28.50;98.70;;;;;;5017526;28;20495;-74
2022/06/01 12:01:11;;;;;;;9.90;3.78;;;27.60;98.90;;;;;;5019227;28;20046;-75
2022/06/01 12:03:54;;;;;;;13.52;4.03;;;27.70;99.20;;;;;;5041826;28;20132;-74
2022/06/01 12:06:42;;;;;;;11.70;4.28;;;28.40;98.10;;;;;;5022898;28;20038;-74
2022/06/01 12:09:29;;;;;;;8.70;3.72;;;28.50;98.70;;;;;;5016378;28;20540;-75
2022/06/01 12:11:55;;;;;;;13.88;3.88;;;28.30;98.80;;;;;;5034220;28;20064;-74
2022/06/01 12:14:55;;;;;;;9.60;3.30;;;29.00;98.20;;;;;;5036325;28;20069;-73
2022/06/01 12:17:25;;;;;;;12.57;3.20;;;28.70;98.40;;;;;;5015183;28;20041;-74
2022/06/01 12:20:12;;;;;;;9.73;3.38;;;28.80;98.10;;;;;;5021639;28;20036;-73
2022/06/01 12:29:24;;;;;;;8.13;2.83;;;29.90;96.60;;;;;;5021556;28;20113;-73
2022/06/01 12:31:53;;;;;;;7.03;2.70;;;29.00;97.00;;;;;;5015640;28;20037;-74
2022/06/01 12:34:26;;;;;;;10.75;2.92;;;28.30;98.00;;;;;;5004038;28;20041;-75
2022/06/01 12:37:15;;;;;;;6.97;3.25;;;28.50;97.20;;;;;;5032482;28;20556;-74
2022/06/01 12:39:46;;;;;;;7.05;2.83;;;29.40;97.20;;;;;;5019113;28;20030;-74
2022/06/01 12:42:26;;;;;;;7.27;3.10;;;29.40;96.80;;;;;;5015238;28;20042;-74
2022/06/01 12:44:53;;;;;;;7.45;2.88;;;29.50;97.30;;;;;;5048439;28;20046;-74
2022/06/01 12:47:36;;;;;;;9.70;3.25;;;28.60;97.60;;;;;;5021641;28;20052;-74
2022/06/01 12:50:16;;;;;;;9.40;3.30;;;28.50;98.20;;;;;;5033830;28;20040;-74
2022/06/01 12:52:43;;;;;;;10.52;3.20;;;28.90;98.20;;;;;;5013071;28;20091;-74
2022/06/01 12:55:13;;;;;;;10.68;2.63;;;28.40;97.40;;;;;;5021300;28;20060;-74
2022/06/01 12:57:47;;;;;;;11.73;2.80;;;28.90;97.50;;;;;;5016875;28;20709;-74
2022/06/01 13:00:21;;;;;;;8.18;3.35;;;29.40;97.20;;;;;;5031769;28;20474;-74
2022/06/01 13:02:47;;;;;;;8.32;3.15;;;28.90;97.30;;;;;;5019671;28;20098;-75
2022/06/01 13:05:26;;;;;;;7.70;3.00;;;28.40;98.10;;;;;;5034275;28;20038;-75
2022/06/01 13:07:57;;;;;;;9.07;2.80;;;27.90;98.40;;;;;;5021945;28;20034;-75
2022/06/01 13:10:29;;;;;;;6.53;2.70;;;28.70;97.70;;;;;;5016969;28;20048;-74
2022/06/01 13:13:10;;;;;;;7.30;3.47;;;29.30;97.50;;;;;;5033566;28;20146;-74
2022/06/01 13:15:38;;;;;;;6.93;2.78;;;29.80;96.90;;;;;;5052399;28;20042;-74
2022/06/01 13:18:12;;;;;;;11.57;3.45;;;28.10;98.00;;;;;;5019904;28;20048;-74
2022/06/01 13:20:39;;;;;;;8.68;3.20;;;27.90;99.10;;;;;;5023694;28;20052;-75
2022/06/01 13:23:28;;;;;;;8.82;3.08;;;28.20;99.40;;;;;;5034086;28;20056;-74
2022/06/01 13:25:58;;;;;;;10.57;3.42;;;27.70;99.80;;;;;;5031464;28;20045;-74
2022/06/01 13:28:25;;;;;;;8.07;3.03;;;28.90;98.90;;;;;;5032440;28;20034;-73
2022/06/01 13:30:52;;;;;;;9.90;2.97;;;29.60;98.20;;;;;;5023026;28;20060;-76
2022/06/01 13:33:30;;;;;;;8.15;3.15;;;30.00;97.60;;;;;;5024350;28;20469;-75
2022/06/01 13:36:02;;;;;;;13.45;3.35;;;27.90;98.60;;;;;;5014103;28;20129;-75